Time;durP1;ratioP1;P1;durP2;ratioP2;P2;SDS_P1;SDS_P2;PMS_P1;PMS_P2;Temp;Humidity;BMP_temperature;BMP_pressure;BME280_temperature;BME280_humidity;BME280_pressure;Samples;Min_cycle;Max_cycle;Signal;HPM_P1;HPM_P2
2020/12/18 00:00:26;;;;;;;86.18;61.60;;;;;;;;;;5080626;28;20036;-58
2020/12/18 00:02:52;;;;;;;85.40;59.70;;;;;;;;;;5076131;28;20028;-58
2020/12/18 00:05:18;;;;;;;82.53;58.28;;;;;;;;;;5079253;28;20078;-57
2020/12/18 00:07:44;;;;;;;85.18;60.70;;;;;;;;;;5077131;28;20407;-57
2020/12/18 00:10:10;;;;;;;87.45;58.05;;;;;;;;;;5078521;28;20044;-58
2020/12/18 00:12:36;;;;;;;79.45;56.20;;;;;;;;;;5078881;28;20028;-54
2020/12/18 00:15:02;;;;;;;77.68;55.10;;;;;;;;;;5085947;28;20048;-58
2020/12/18 00:17:28;;;;;;;73.57;52.88;;;;;;;;;;5080521;28;20059;-57
2020/12/18 00:26:01;;;;;;;75.32;53.42;;;;;;;;;;5082191;28;20055;-58
2020/12/18 00:28:27;;;;;;;76.95;53.40;;;;;;;;;;5077972;28;20123;-59
2020/12/18 00:30:53;;;;;;;73.28;53.95;;;;;;;;;;5084980;28;20032;-59
2020/12/18 00:33:19;;;;;;;67.25;50.38;;;;;;;;;;5084839;28;20039;-58
2020/12/18 00:35:45;;;;;;;75.30;54.33;;;;;;;;;;5084797;28;20038;-57
2020/12/18 00:38:11;;;;;;;74.07;52.50;;;;;;;;;;5077459;28;20032;-58
2020/12/18 00:40:37;;;;;;;68.05;52.28;;;;;;;;;;5080793;28;20380;-58
2020/12/18 00:43:03;;;;;;;72.70;54.45;;;;;;;;;;5081373;28;20028;-56
2020/12/18 00:45:39;;;;;;;79.20;55.25;;;;;;;;;;5083780;28;20047;-57
2020/12/18 00:48:05;;;;;;;77.60;55.38;;;;;;;;;;5083598;28;20032;-58
2020/12/18 00:50:31;;;;;;;69.60;50.83;;;;;;;;;;5077177;28;20020;-55
2020/12/18 00:52:57;;;;;;;73.30;52.83;;;;;;;;;;5082554;28;20029;-57
2020/12/18 00:55:23;;;;;;;71.38;50.97;;;;;;;;;;5078149;28;20435;-57
2020/12/18 00:57:49;;;;;;;70.82;52.03;;;;;;;;;;5078699;28;20032;-56
2020/12/18 01:00:16;;;;;;;68.68;51.17;;;;;;;;;;5077591;28;20101;-57
2020/12/18 01:02:42;;;;;;;70.75;53.38;;;;;;;;;;5078699;28;20031;-57
2020/12/18 01:05:08;;;;;;;70.28;53.90;;;;;;;;;;5081929;28;20467;-55
2020/12/18 01:07:34;;;;;;;73.20;52.92;;;;;;;;;;5079243;28;20052;-57
2020/12/18 01:10:00;;;;;;;70.38;51.03;;;;;;;;;;5082345;28;20032;-57
2020/12/18 01:12:26;;;;;;;68.55;50.83;;;;;;;;;;5081888;28;20028;-56
2020/12/18 01:14:52;;;;;;;65.72;51.20;;;;;;;;;;5078506;28;20037;-57
2020/12/18 01:17:18;;;;;;;66.88;49.95;;;;;;;;;;5083205;28;20385;-58
2020/12/18 01:19:44;;;;;;;69.72;51.45;;;;;;;;;;5079956;28;20040;-59
2020/12/18 01:22:10;;;;;;;70.13;52.47;;;;;;;;;;5084095;28;20036;-56
2020/12/18 01:24:36;;;;;;;73.97;53.08;;;;;;;;;;5073594;28;20021;-58
2020/12/18 01:27:02;;;;;;;70.53;50.83;;;;;;;;;;5083178;28;20508;-59
2020/12/18 01:29:28;;;;;;;70.65;51.58;;;;;;;;;;5083032;28;20029;-58
2020/12/18 01:31:54;;;;;;;69.45;51.92;;;;;;;;;;5082390;28;20020;-58
2020/12/18 01:34:20;;;;;;;65.32;49.50;;;;;;;;;;5082357;28;20028;-58
2020/12/18 01:36:47;;;;;;;64.80;49.85;;;;;;;;;;5080997;28;20028;-58
2020/12/18 01:39:13;;;;;;;66.68;50.58;;;;;;;;;;5082089;28;20025;-57
2020/12/18 01:41:39;;;;;;;64.40;50.00;;;;;;;;;;5080277;28;20023;-58
2020/12/18 01:44:05;;;;;;;70.80;52.05;;;;;;;;;;5086381;28;20032;-58
2020/12/18 01:46:31;;;;;;;69.50;50.83;;;;;;;;;;5072978;28;20020;-56
2020/12/18 01:48:58;;;;;;;67.95;51.47;;;;;;;;;;5085863;28;20028;-56
2020/12/18 01:51:25;;;;;;;71.18;52.08;;;;;;;;;;5079664;28;20055;-57
2020/12/18 01:53:52;;;;;;;71.40;52.85;;;;;;;;;;5081488;28;20036;-57
2020/12/18 01:56:18;;;;;;;73.80;53.05;;;;;;;;;;5077508;28;20028;-57
2020/12/18 01:58:45;;;;;;;73.53;50.38;;;;;;;;;;5089351;28;20039;-54
2020/12/18 02:01:11;;;;;;;68.35;50.92;;;;;;;;;;5079299;28;20074;-56
2020/12/18 02:03:38;;;;;;;70.72;53.03;;;;;;;;;;5083812;28;20428;-57
2020/12/18 02:06:14;;;;;;;71.07;50.20;;;;;;;;;;5081496;28;20046;-58
2020/12/18 02:08:41;;;;;;;65.30;49.97;;;;;;;;;;5094062;28;20566;-57
2020/12/18 02:11:10;;;;;;;71.00;53.08;;;;;;;;;;5085101;28;20126;-58
2020/12/18 02:13:36;;;;;;;71.65;52.65;;;;;;;;;;5076781;28;20511;-57
2020/12/18 02:16:02;;;;;;;74.38;52.67;;;;;;;;;;5086754;28;20044;-57
2020/12/18 02:18:28;;;;;;;76.22;54.05;;;;;;;;;;5082978;28;20490;-58
2020/12/18 02:20:54;;;;;;;79.47;55.28;;;;;;;;;;5090961;28;20542;-57
2020/12/18 02:23:20;;;;;;;75.78;56.55;;;;;;;;;;5081423;28;20169;-58
2020/12/18 02:26:06;;;;;;;76.65;54.97;;;;;;;;;;5089724;28;20024;-57
2020/12/18 02:28:32;;;;;;;67.25;50.65;;;;;;;;;;5083269;28;20063;-57
2020/12/18 02:30:58;;;;;;;68.85;50.13;;;;;;;;;;5086687;28;20024;-58
2020/12/18 02:33:24;;;;;;;71.72;50.33;;;;;;;;;;5083633;28;20424;-58
2020/12/18 02:35:51;;;;;;;66.32;47.83;;;;;;;;;;5084625;28;20025;-58
2020/12/18 02:41:20;;;;;;;65.57;48.33;;;;;;;;;;5083939;28;20500;-58
2020/12/18 02:43:46;;;;;;;71.13;50.88;;;;;;;;;;5083053;28;20036;-56
2020/12/18 02:49:16;;;;;;;73.18;54.20;;;;;;;;;;5082713;28;20547;-59
2020/12/18 02:51:43;;;;;;;69.70;50.28;;;;;;;;;;5089362;28;20028;-58
2020/12/18 02:54:10;;;;;;;68.97;50.97;;;;;;;;;;5080799;28;20512;-58
2020/12/18 02:56:36;;;;;;;74.47;51.92;;;;;;;;;;5085493;28;20422;-58
2020/12/18 02:59:02;;;;;;;75.68;53.22;;;;;;;;;;5085038;28;20778;-57
2020/12/18 03:01:28;;;;;;;71.45;52.97;;;;;;;;;;5083509;28;20021;-58
2020/12/18 03:03:54;;;;;;;76.22;54.30;;;;;;;;;;5078128;28;20028;-58
2020/12/18 03:06:20;;;;;;;76.53;54.92;;;;;;;;;;5081959;28;20031;-58
2020/12/18 03:08:46;;;;;;;74.13;51.97;;;;;;;;;;5082284;28;20661;-58
2020/12/18 03:11:12;;;;;;;76.32;54.97;;;;;;;;;;5088407;28;20397;-58
2020/12/18 03:13:38;;;;;;;72.03;51.55;;;;;;;;;;5088429;28;20562;-58
2020/12/18 03:16:04;;;;;;;71.00;52.33;;;;;;;;;;5083027;28;20048;-58
2020/12/18 03:18:30;;;;;;;70.38;51.47;;;;;;;;;;5088625;28;20028;-58
2020/12/18 03:20:56;;;;;;;72.75;54.15;;;;;;;;;;5084467;28;20028;-58
2020/12/18 03:23:22;;;;;;;71.88;51.45;;;;;;;;;;5085246;28;20024;-57
2020/12/18 03:25:48;;;;;;;68.03;50.40;;;;;;;;;;5084144;28;20043;-58
2020/12/18 03:28:15;;;;;;;72.28;52.88;;;;;;;;;;5080406;28;20036;-58
2020/12/18 03:30:40;;;;;;;71.10;52.88;;;;;;;;;;5082723;28;20028;-57
2020/12/18 03:33:07;;;;;;;74.72;55.65;;;;;;;;;;5078380;28;20039;-57
2020/12/18 03:35:33;;;;;;;74.90;54.55;;;;;;;;;;5085474;28;20462;-57
2020/12/18 03:37:59;;;;;;;82.25;56.95;;;;;;;;;;5080153;28;20051;-57
2020/12/18 03:40:25;;;;;;;76.20;54.80;;;;;;;;;;5082576;28;20032;-55
2020/12/18 03:42:51;;;;;;;74.60;53.72;;;;;;;;;;5083418;28;20050;-57
2020/12/18 03:45:17;;;;;;;73.80;53.75;;;;;;;;;;5077545;28;20020;-57
2020/12/18 03:47:43;;;;;;;71.45;52.60;;;;;;;;;;5082176;28;20029;-55
2020/12/18 03:50:09;;;;;;;73.10;54.17;;;;;;;;;;5078656;28;20024;-57
2020/12/18 03:52:35;;;;;;;76.40;54.80;;;;;;;;;;5079389;28;20425;-58
2020/12/18 03:55:01;;;;;;;69.53;53.25;;;;;;;;;;5083664;28;20039;-58
2020/12/18 03:57:27;;;;;;;72.22;54.75;;;;;;;;;;5077918;28;20028;-55
2020/12/18 03:59:53;;;;;;;76.60;53.97;;;;;;;;;;5080336;28;20035;-56
2020/12/18 04:02:19;;;;;;;71.53;53.20;;;;;;;;;;5076955;28;20386;-57
2020/12/18 04:04:45;;;;;;;72.38;53.25;;;;;;;;;;5087762;28;20038;-57
2020/12/18 04:07:12;;;;;;;76.10;54.50;;;;;;;;;;5080420;28;20032;-55
2020/12/18 04:09:39;;;;;;;71.53;51.83;;;;;;;;;;5080656;28;20021;-58
2020/12/18 04:12:06;;;;;;;76.45;54.53;;;;;;;;;;5078740;28;20056;-54
2020/12/18 04:14:32;;;;;;;77.95;53.78;;;;;;;;;;5085842;28;20027;-59
2020/12/18 04:16:58;;;;;;;81.93;56.97;;;;;;;;;;5079995;28;20111;-57
2020/12/18 04:19:24;;;;;;;76.82;53.55;;;;;;;;;;5084916;28;20047;-58
2020/12/18 04:21:50;;;;;;;75.65;54.00;;;;;;;;;;5078089;28;20051;-58
2020/12/18 04:24:16;;;;;;;76.07;53.20;;;;;;;;;;5078746;28;20448;-58
2020/12/18 04:26:42;;;;;;;76.07;54.40;;;;;;;;;;5080896;28;20602;-57
2020/12/18 04:29:08;;;;;;;68.13;51.63;;;;;;;;;;5086341;28;20028;-55
2020/12/18 04:31:34;;;;;;;69.60;52.10;;;;;;;;;;5080489;28;20077;-54
2020/12/18 04:34:00;;;;;;;76.15;54.90;;;;;;;;;;5077200;28;20033;-56
2020/12/18 04:36:26;;;;;;;76.82;55.00;;;;;;;;;;5081885;28;20035;-57
2020/12/18 04:38:52;;;;;;;76.95;55.63;;;;;;;;;;5082394;28;20036;-55
2020/12/18 04:41:18;;;;;;;85.68;63.10;;;;;;;;;;5084003;28;20909;-57
2020/12/18 04:43:45;;;;;;;92.75;61.60;;;;;;;;;;5083364;28;20028;-57
2020/12/18 04:46:16;;;;;;;84.00;59.05;;;;;;;;;;5081969;28;20032;-56
2020/12/18 04:48:43;;;;;;;83.72;57.10;;;;;;;;;;5076905;28;20497;-56
2020/12/18 04:51:12;;;;;;;81.93;58.58;;;;;;;;;;5084646;28;20478;-59
2020/12/18 04:53:39;;;;;;;86.22;59.83;;;;;;;;;;5078205;28;20103;-57
2020/12/18 04:56:11;;;;;;;78.03;55.65;;;;;;;;;;5082532;28;20478;-58
2020/12/18 05:01:41;;;;;;;83.38;58.35;;;;;;;;;;5076492;28;20104;-58
2020/12/18 05:04:07;;;;;;;80.65;58.45;;;;;;;;;;5080138;28;20021;-55
2020/12/18 05:06:33;;;;;;;84.97;59.05;;;;;;;;;;5083859;28;20016;-59
2020/12/18 05:08:59;;;;;;;82.70;57.35;;;;;;;;;;5076732;28;20028;-57
2020/12/18 05:11:26;;;;;;;81.40;56.65;;;;;;;;;;5084572;28;20047;-58
2020/12/18 05:13:53;;;;;;;85.38;56.67;;;;;;;;;;5081396;28;20037;-57
2020/12/18 05:16:22;;;;;;;75.70;55.28;;;;;;;;;;5091112;28;20082;-58
2020/12/18 05:18:48;;;;;;;79.65;55.95;;;;;;;;;;5079634;28;20115;-58
2020/12/18 05:21:16;;;;;;;77.45;56.13;;;;;;;;;;5086372;28;20055;-58
2020/12/18 05:23:43;;;;;;;77.07;54.97;;;;;;;;;;5088690;28;20045;-57
2020/12/18 05:26:13;;;;;;;82.95;57.50;;;;;;;;;;5080352;28;20046;-55
2020/12/18 05:28:39;;;;;;;87.40;59.00;;;;;;;;;;5081872;28;20039;-58
2020/12/18 05:31:08;;;;;;;85.63;57.47;;;;;;;;;;5076580;28;20064;-55
2020/12/18 05:33:34;;;;;;;76.45;57.03;;;;;;;;;;5079158;28;20031;-58
2020/12/18 05:39:05;;;;;;;81.53;58.95;;;;;;;;;;5080982;28;20032;-57
2020/12/18 05:41:31;;;;;;;84.82;57.17;;;;;;;;;;5077881;28;20021;-58
2020/12/18 05:44:05;;;;;;;85.70;59.15;;;;;;;;;;5082820;28;20172;-58
2020/12/18 05:46:34;;;;;;;82.60;58.63;;;;;;;;;;5083888;28;20020;-58
2020/12/18 05:49:02;;;;;;;84.53;60.03;;;;;;;;;;5085195;28;20431;-58
2020/12/18 05:51:35;;;;;;;85.47;58.88;;;;;;;;;;5081838;28;20020;-58
2020/12/18 05:54:12;;;;;;;86.05;60.20;;;;;;;;;;5085163;28;20066;-57
2020/12/18 05:56:39;;;;;;;84.68;57.38;;;;;;;;;;5077596;28;20482;-58
2020/12/18 05:59:06;;;;;;;87.45;62.58;;;;;;;;;;5086043;28;20071;-57
2020/12/18 06:01:32;;;;;;;92.40;62.92;;;;;;;;;;5085538;28;20052;-57
2020/12/18 06:04:02;;;;;;;90.13;61.58;;;;;;;;;;5080863;28;20059;-58
2020/12/18 06:06:30;;;;;;;98.65;63.60;;;;;;;;;;5079848;28;20461;-58
2020/12/18 06:12:01;;;;;;;94.60;63.58;;;;;;;;;;5072409;28;20077;-59
2020/12/18 06:14:27;;;;;;;93.20;63.78;;;;;;;;;;5087767;28;20046;-57
2020/12/18 06:16:54;;;;;;;97.15;66.05;;;;;;;;;;5085646;28;20119;-58
2020/12/18 06:19:21;;;;;;;98.93;67.72;;;;;;;;;;5083235;28;20024;-58
2020/12/18 06:21:51;;;;;;;90.82;65.20;;;;;;;;;;5086434;28;20032;-58
2020/12/18 06:24:17;;;;;;;87.95;60.10;;;;;;;;;;5082798;28;20416;-58
2020/12/18 06:26:45;;;;;;;84.80;58.70;;;;;;;;;;5083403;28;20028;-59
2020/12/18 06:29:11;;;;;;;89.30;60.65;;;;;;;;;;5087141;28;20032;-58
2020/12/18 06:31:38;;;;;;;82.25;59.42;;;;;;;;;;5084711;28;20049;-57
2020/12/18 06:34:05;;;;;;;84.70;58.42;;;;;;;;;;5082384;28;20088;-58
2020/12/18 06:36:46;;;;;;;81.57;59.08;;;;;;;;;;5081198;28;20076;-56
2020/12/18 06:39:22;;;;;;;79.90;57.72;;;;;;;;;;5085260;28;20032;-55
2020/12/18 06:41:49;;;;;;;80.90;56.60;;;;;;;;;;5091947;28;20039;-58
2020/12/18 06:44:34;;;;;;;86.75;60.40;;;;;;;;;;5078066;28;20106;-58
2020/12/18 06:47:10;;;;;;;82.18;57.70;;;;;;;;;;5080061;28;20048;-56
2020/12/18 06:49:55;;;;;;;78.65;57.45;;;;;;;;;;5089872;28;20046;-56
2020/12/18 06:52:40;;;;;;;78.95;57.92;;;;;;;;;;5079736;28;20118;-56
2020/12/18 06:55:07;;;;;;;76.47;55.22;;;;;;;;;;5076966;28;20079;-58
2020/12/18 06:57:33;;;;;;;78.03;56.80;;;;;;;;;;5078647;28;20436;-57
2020/12/18 07:00:18;;;;;;;78.32;57.10;;;;;;;;;;5084206;28;20016;-58
2020/12/18 07:02:44;;;;;;;75.45;56.60;;;;;;;;;;5074336;28;20025;-59
2020/12/18 07:05:29;;;;;;;78.35;57.78;;;;;;;;;;5082503;28;20120;-58
2020/12/18 07:07:57;;;;;;;77.72;57.28;;;;;;;;;;5080709;28;20036;-57
2020/12/18 07:10:30;;;;;;;73.38;56.25;;;;;;;;;;5083193;28;20025;-59
2020/12/18 07:13:00;;;;;;;75.15;56.28;;;;;;;;;;5083056;28;20040;-57
2020/12/18 07:15:49;;;;;;;77.28;55.00;;;;;;;;;;5082847;28;20024;-57
2020/12/18 07:18:23;;;;;;;75.72;54.67;;;;;;;;;;5079017;28;20037;-58
2020/12/18 07:20:50;;;;;;;64.40;50.30;;;;;;;;;;5081497;28;20165;-56
2020/12/18 07:23:16;;;;;;;71.57;53.10;;;;;;;;;;5078653;28;20025;-58
2020/12/18 07:25:42;;;;;;;62.42;47.80;;;;;;;;;;5077708;28;20024;-54
2020/12/18 07:28:09;;;;;;;56.35;45.17;;;;;;;;;;5076386;28;20416;-57
2020/12/18 07:30:42;;;;;;;58.90;42.63;;;;;;;;;;5073282;28;20468;-58
2020/12/18 07:33:09;;;;;;;51.88;42.83;;;;;;;;;;5082652;28;20024;-58
2020/12/18 07:35:41;;;;;;;59.17;44.42;;;;;;;;;;5079610;28;20310;-53
2020/12/18 07:38:14;;;;;;;58.15;43.72;;;;;;;;;;5087326;28;20038;-58
2020/12/18 07:40:40;;;;;;;53.65;42.20;;;;;;;;;;5080211;28;20051;-58
2020/12/18 07:43:10;;;;;;;53.47;43.60;;;;;;;;;;5082569;28;20108;-58
2020/12/18 07:45:40;;;;;;;56.17;42.97;;;;;;;;;;5082408;28;20032;-56
2020/12/18 07:48:10;;;;;;;56.55;42.30;;;;;;;;;;5080752;28;20097;-57
2020/12/18 07:50:36;;;;;;;53.38;43.10;;;;;;;;;;5084385;28;20037;-58
2020/12/18 07:53:06;;;;;;;57.00;43.45;;;;;;;;;;5081311;28;20032;-59
2020/12/18 07:55:32;;;;;;;51.95;40.63;;;;;;;;;;5079970;28;20037;-56
2020/12/18 07:57:58;;;;;;;54.95;43.83;;;;;;;;;;5080354;28;20562;-58
2020/12/18 08:00:24;;;;;;;61.28;43.65;;;;;;;;;;5077918;28;20045;-57
2020/12/18 08:02:50;;;;;;;60.58;43.83;;;;;;;;;;5078546;28;20024;-56
2020/12/18 08:05:20;;;;;;;56.50;44.25;;;;;;;;;;5071988;28;20032;-58
2020/12/18 08:07:46;;;;;;;67.75;45.10;;;;;;;;;;5083686;28;20044;-56
2020/12/18 08:10:14;;;;;;;66.55;47.83;;;;;;;;;;5078938;28;20017;-57
2020/12/18 08:12:40;;;;;;;63.60;46.30;;;;;;;;;;5076599;28;20041;-57
2020/12/18 08:15:13;;;;;;;64.18;46.00;;;;;;;;;;5076690;28;20535;-56
2020/12/18 08:17:41;;;;;;;66.00;47.90;;;;;;;;;;5081652;28;20115;-58
2020/12/18 08:20:08;;;;;;;63.83;46.75;;;;;;;;;;5079872;28;20466;-57
2020/12/18 08:22:45;;;;;;;63.55;47.05;;;;;;;;;;5077213;28;20082;-57
2020/12/18 08:25:12;;;;;;;70.13;48.63;;;;;;;;;;5078775;28;20039;-58
2020/12/18 08:27:44;;;;;;;69.22;47.75;;;;;;;;;;5079436;28;20040;-55
2020/12/18 08:30:10;;;;;;;64.22;44.50;;;;;;;;;;5083607;28;20082;-57
2020/12/18 08:32:40;;;;;;;64.47;46.50;;;;;;;;;;5072114;28;20031;-57
2020/12/18 08:35:08;;;;;;;59.33;43.67;;;;;;;;;;5081853;28;20051;-57
2020/12/18 08:37:34;;;;;;;67.78;46.03;;;;;;;;;;5082174;28;20558;-58
2020/12/18 08:40:00;;;;;;;68.72;45.10;;;;;;;;;;5079502;28;20017;-57
2020/12/18 08:42:26;;;;;;;70.15;47.17;;;;;;;;;;5078558;28;20389;-57
2020/12/18 08:44:53;;;;;;;63.88;46.10;;;;;;;;;;5080029;28;20089;-57
2020/12/18 08:47:19;;;;;;;67.80;45.67;;;;;;;;;;5077913;28;20053;-58
2020/12/18 08:49:45;;;;;;;66.15;45.83;;;;;;;;;;5074386;28;20119;-59
2020/12/18 08:52:12;;;;;;;67.63;46.95;;;;;;;;;;5077431;28;20738;-58
2020/12/18 08:54:39;;;;;;;72.35;47.88;;;;;;;;;;5083547;28;20024;-57
2020/12/18 08:57:18;;;;;;;65.72;46.17;;;;;;;;;;5077473;28;20029;-58
2020/12/18 09:00:02;;;;;;;71.18;46.95;;;;;;;;;;5088070;28;20036;-58
2020/12/18 09:02:29;;;;;;;70.05;46.53;;;;;;;;;;5076542;28;20405;-58
2020/12/18 09:05:27;;;;;;;66.72;44.10;;;;;;;;;;5081351;28;20075;-57
2020/12/18 09:07:59;;;;;;;71.20;46.25;;;;;;;;;;5043523;28;20047;-54
2020/12/18 09:10:28;;;;;;;59.97;41.83;;;;;;;;;;5089592;28;20061;-58
2020/12/18 09:12:54;;;;;;;62.13;42.08;;;;;;;;;;5089544;28;20054;-60
2020/12/18 09:15:29;;;;;;;65.38;44.33;;;;;;;;;;5090380;28;20031;-56
2020/12/18 09:18:32;;;;;;;72.32;47.78;;;;;;;;;;5082847;28;20028;-57
2020/12/18 09:21:10;;;;;;;62.75;42.55;;;;;;;;;;5091888;28;20024;-54
2020/12/18 09:26:39;;;;;;;60.80;42.58;;;;;;;;;;5085168;28;20377;-58
2020/12/18 09:29:14;;;;;;;64.47;44.42;;;;;;;;;;5082097;28;20025;-57
2020/12/18 09:31:40;;;;;;;69.78;45.95;;;;;;;;;;5082717;28;20021;-57
2020/12/18 09:34:16;;;;;;;70.88;47.58;;;;;;;;;;5085663;28;20024;-56
2020/12/18 09:36:42;;;;;;;68.40;46.92;;;;;;;;;;5089212;28;20096;-57
2020/12/18 09:39:08;;;;;;;66.28;41.92;;;;;;;;;;5091923;28;20031;-56
2020/12/18 09:41:34;;;;;;;65.57;41.63;;;;;;;;;;5087917;28;20086;-58
2020/12/18 09:44:00;;;;;;;64.05;42.40;;;;;;;;;;5084522;28;20026;-59
2020/12/18 09:46:26;;;;;;;60.13;40.05;;;;;;;;;;5084590;28;20040;-56
2020/12/18 09:49:05;;;;;;;70.18;45.33;;;;;;;;;;5084000;28;20391;-58
2020/12/18 09:51:34;;;;;;;61.33;43.08;;;;;;;;;;5084489;28;20119;-57
2020/12/18 09:54:00;;;;;;;75.00;47.55;;;;;;;;;;5088920;28;20103;-58
2020/12/18 09:56:26;;;;;;;65.57;46.33;;;;;;;;;;5079952;28;20032;-57
2020/12/18 09:58:52;;;;;;;67.65;45.50;;;;;;;;;;5084020;28;20090;-57
2020/12/18 10:01:20;;;;;;;68.60;45.95;;;;;;;;;;5082191;28;20028;-58
2020/12/18 10:03:49;;;;;;;79.38;47.97;;;;;;;;;;5083043;28;20020;-56
2020/12/18 10:06:15;;;;;;;74.43;46.75;;;;;;;;;;5079239;28;20484;-58
2020/12/18 10:08:41;;;;;;;64.03;41.45;;;;;;;;;;5089369;28;20033;-57
2020/12/18 10:11:07;;;;;;;79.28;49.17;;;;;;;;;;5081459;28;20044;-58
2020/12/18 10:13:33;;;;;;;94.60;52.80;;;;;;;;;;5086974;28;20402;-58
2020/12/18 10:19:02;;;;;;;45.15;34.30;;;;;;;;;;5089960;28;20077;-57
2020/12/18 10:21:31;;;;;;;64.05;43.53;;;;;;;;;;5082341;28;20034;-56
2020/12/18 10:23:57;;;;;;;53.33;34.80;;;;;;;;;;5084414;28;20045;-59
2020/12/18 10:26:23;;;;;;;58.22;36.92;;;;;;;;;;5079400;28;20641;-58
2020/12/18 10:28:49;;;;;;;52.15;37.47;;;;;;;;;;5078565;28;20539;-57
2020/12/18 10:31:15;;;;;;;62.53;41.65;;;;;;;;;;5084587;28;20033;-58
2020/12/18 10:33:41;;;;;;;76.57;47.63;;;;;;;;;;5080939;28;20028;-58
2020/12/18 10:36:07;;;;;;;79.63;49.72;;;;;;;;;;5084136;28;20029;-56
2020/12/18 10:41:39;;;;;;;71.32;47.67;;;;;;;;;;5075894;28;20570;-56
2020/12/18 10:44:05;;;;;;;68.07;44.17;;;;;;;;;;5086922;28;20027;-58
2020/12/18 10:46:32;;;;;;;73.88;47.03;;;;;;;;;;5083060;28;20034;-58
2020/12/18 10:48:58;;;;;;;67.80;46.22;;;;;;;;;;5082182;28;20025;-58
2020/12/18 10:51:24;;;;;;;61.50;41.25;;;;;;;;;;5089530;28;20016;-56
2020/12/18 10:53:50;;;;;;;59.70;41.88;;;;;;;;;;5078227;28;20035;-56
2020/12/18 10:56:16;;;;;;;49.65;35.60;;;;;;;;;;5082398;28;20032;-59
2020/12/18 10:58:42;;;;;;;46.47;32.15;;;;;;;;;;5074124;28;20386;-58
2020/12/18 11:01:08;;;;;;;45.78;32.58;;;;;;;;;;5083148;28;20052;-57
2020/12/18 11:03:34;;;;;;;51.00;34.35;;;;;;;;;;5078940;28;20532;-59
2020/12/18 11:06:04;;;;;;;52.40;34.58;;;;;;;;;;5082865;28;20116;-58
2020/12/18 11:08:30;;;;;;;48.33;33.95;;;;;;;;;;5075150;28;20119;-55
2020/12/18 11:10:56;;;;;;;50.53;35.33;;;;;;;;;;5076881;28;20045;-56
2020/12/18 11:13:22;;;;;;;50.85;34.90;;;;;;;;;;5079419;28;20021;-56
2020/12/18 11:15:48;;;;;;;54.47;36.00;;;;;;;;;;5079455;28;20034;-57
2020/12/18 11:18:14;;;;;;;52.28;37.40;;;;;;;;;;5078933;28;20107;-56
2020/12/18 11:20:40;;;;;;;52.97;35.97;;;;;;;;;;5084387;28;20024;-58
2020/12/18 11:23:06;;;;;;;55.15;36.83;;;;;;;;;;5081138;28;20054;-59
2020/12/18 11:25:32;;;;;;;55.65;37.70;;;;;;;;;;5081358;28;20020;-57
2020/12/18 11:27:58;;;;;;;53.05;36.72;;;;;;;;;;5084927;28;20119;-59
2020/12/18 11:30:24;;;;;;;48.75;34.67;;;;;;;;;;5082846;28;20024;-57
2020/12/18 11:32:50;;;;;;;51.17;36.45;;;;;;;;;;5075110;28;20394;-58
2020/12/18 11:35:16;;;;;;;47.90;34.88;;;;;;;;;;5073023;28;20028;-58
2020/12/18 11:37:43;;;;;;;54.08;35.83;;;;;;;;;;5080192;28;20089;-58
2020/12/18 11:40:09;;;;;;;47.90;33.35;;;;;;;;;;5074925;28;20028;-57
2020/12/18 11:42:35;;;;;;;43.22;32.38;;;;;;;;;;5084460;28;20055;-57
2020/12/18 11:45:04;;;;;;;49.33;34.70;;;;;;;;;;5073872;28;20451;-52
2020/12/18 11:47:32;;;;;;;53.40;36.58;;;;;;;;;;5083084;28;20057;-55
2020/12/18 11:49:58;;;;;;;48.63;36.70;;;;;;;;;;5077805;28;20493;-55
2020/12/18 11:52:24;;;;;;;50.78;37.97;;;;;;;;;;5081249;28;20024;-56
2020/12/18 11:54:50;;;;;;;55.70;38.63;;;;;;;;;;5075969;28;20159;-56
2020/12/18 11:57:16;;;;;;;50.67;35.00;;;;;;;;;;5080483;28;20044;-49
2020/12/18 11:59:42;;;;;;;58.47;39.00;;;;;;;;;;5070677;28;20016;-51
2020/12/18 12:02:09;;;;;;;60.55;38.25;;;;;;;;;;5079060;28;20111;-55
2020/12/18 12:04:35;;;;;;;58.30;38.70;;;;;;;;;;5080348;28;20085;-54
2020/12/18 12:07:01;;;;;;;64.93;40.17;;;;;;;;;;5078081;28;20032;-56
2020/12/18 12:09:27;;;;;;;62.00;40.40;;;;;;;;;;5079457;28;20093;-55
2020/12/18 12:11:53;;;;;;;57.90;39.95;;;;;;;;;;5075366;28;20505;-52
2020/12/18 12:14:19;;;;;;;62.80;41.17;;;;;;;;;;5079410;28;20043;-55
2020/12/18 12:16:45;;;;;;;60.40;42.33;;;;;;;;;;5077389;28;20028;-52
2020/12/18 12:19:11;;;;;;;63.78;44.05;;;;;;;;;;5081150;28;20036;-60
2020/12/18 12:21:39;;;;;;;66.70;44.30;;;;;;;;;;5079059;28;20020;-60
2020/12/18 12:24:05;;;;;;;66.13;46.03;;;;;;;;;;5078430;28;20020;-60
2020/12/18 12:26:31;;;;;;;75.57;48.55;;;;;;;;;;5074967;28;20451;-60
2020/12/18 12:28:57;;;;;;;71.82;45.65;;;;;;;;;;5082653;28;20146;-60
2020/12/18 12:31:24;;;;;;;69.97;47.78;;;;;;;;;;5075457;28;20032;-60
2020/12/18 12:39:57;;;;;;;73.32;49.22;;;;;;;;;;5085028;28;20409;-58
2020/12/18 12:42:23;;;;;;;74.35;49.25;;;;;;;;;;5074828;28;20477;-59
2020/12/18 12:44:49;;;;;;;82.30;52.63;;;;;;;;;;5078763;28;20084;-56
2020/12/18 12:47:15;;;;;;;80.22;53.78;;;;;;;;;;5075781;28;20034;-58
2020/12/18 12:49:41;;;;;;;74.50;50.67;;;;;;;;;;5085651;28;20496;-56
2020/12/18 12:52:07;;;;;;;73.45;48.95;;;;;;;;;;5072514;28;20531;-59
2020/12/18 12:54:33;;;;;;;77.53;50.55;;;;;;;;;;5082808;28;20044;-55
2020/12/18 12:56:59;;;;;;;77.10;49.75;;;;;;;;;;5081388;28;20385;-57
2020/12/18 12:59:25;;;;;;;79.65;50.35;;;;;;;;;;5081118;28;20024;-57
2020/12/18 13:01:52;;;;;;;80.63;55.63;;;;;;;;;;5074847;28;20025;-57
2020/12/18 13:04:19;;;;;;;87.80;56.13;;;;;;;;;;5084764;28;20039;-55
2020/12/18 13:06:45;;;;;;;95.80;61.08;;;;;;;;;;5078315;28;20020;-57
2020/12/18 13:09:11;;;;;;;93.18;59.88;;;;;;;;;;5076459;28;20126;-59
2020/12/18 13:11:38;;;;;;;90.88;59.53;;;;;;;;;;5077724;28;20040;-59
2020/12/18 13:14:07;;;;;;;93.68;58.50;;;;;;;;;;5073720;28;20504;-63
2020/12/18 13:16:34;;;;;;;89.63;57.35;;;;;;;;;;5077770;28;20043;-63
2020/12/18 13:19:03;;;;;;;97.32;61.15;;;;;;;;;;5077123;28;20023;-62
2020/12/18 13:21:29;;;;;;;90.28;57.20;;;;;;;;;;5080903;28;20028;-63
2020/12/18 13:23:55;;;;;;;88.05;56.05;;;;;;;;;;5080970;28;20047;-62
2020/12/18 13:26:21;;;;;;;99.88;57.50;;;;;;;;;;5076971;28;20111;-62
2020/12/18 13:28:48;;;;;;;91.90;56.60;;;;;;;;;;5077018;28;20036;-62
2020/12/18 13:31:15;;;;;;;83.50;54.83;;;;;;;;;;5082279;28;20488;-62
2020/12/18 13:33:41;;;;;;;82.03;52.97;;;;;;;;;;5073065;28;20024;-63
2020/12/18 13:36:07;;;;;;;79.57;51.45;;;;;;;;;;5077996;28;20032;-64
2020/12/18 13:38:33;;;;;;;82.03;51.00;;;;;;;;;;5075436;28;20027;-61
2020/12/18 13:40:59;;;;;;;77.88;49.05;;;;;;;;;;5082945;28;20024;-61
2020/12/18 13:43:25;;;;;;;75.85;49.28;;;;;;;;;;5082228;28;20027;-61
2020/12/18 13:45:51;;;;;;;87.05;55.17;;;;;;;;;;5078478;28;20036;-62
2020/12/18 13:48:17;;;;;;;92.20;54.75;;;;;;;;;;5080346;28;20458;-62
2020/12/18 13:50:52;;;;;;;96.75;58.60;;;;;;;;;;5075309;28;20478;-61
2020/12/18 13:53:18;;;;;;;82.70;51.63;;;;;;;;;;5080056;28;20032;-61
2020/12/18 13:55:48;;;;;;;81.68;52.28;;;;;;;;;;5082899;28;20021;-61
2020/12/18 13:58:14;;;;;;;84.78;52.67;;;;;;;;;;5082807;28;20017;-62
2020/12/18 14:00:40;;;;;;;88.22;56.08;;;;;;;;;;5081225;28;20431;-62
2020/12/18 14:03:06;;;;;;;83.50;54.85;;;;;;;;;;5086596;28;20498;-63
2020/12/18 14:05:32;;;;;;;80.05;54.30;;;;;;;;;;5076413;28;20020;-63
2020/12/18 14:07:58;;;;;;;76.50;50.85;;;;;;;;;;5084532;28;20043;-62
2020/12/18 14:10:24;;;;;;;82.95;52.22;;;;;;;;;;5078729;28;20028;-63
2020/12/18 14:12:50;;;;;;;79.82;51.95;;;;;;;;;;5085973;28;20052;-63
2020/12/18 14:15:16;;;;;;;86.30;53.78;;;;;;;;;;5081022;28;20021;-62
2020/12/18 14:17:42;;;;;;;82.30;52.88;;;;;;;;;;5087218;28;20025;-63
2020/12/18 14:20:08;;;;;;;83.65;55.10;;;;;;;;;;5078356;28;20025;-63
2020/12/18 14:22:38;;;;;;;91.22;59.22;;;;;;;;;;5084855;28;20393;-62
2020/12/18 14:25:04;;;;;;;82.68;54.92;;;;;;;;;;5083010;28;20025;-63
2020/12/18 14:27:30;;;;;;;83.65;53.47;;;;;;;;;;5083103;28;20036;-63
2020/12/18 14:29:56;;;;;;;81.32;55.45;;;;;;;;;;5079268;28;20062;-63
2020/12/18 14:32:22;;;;;;;84.25;55.28;;;;;;;;;;5078090;28;20431;-62
2020/12/18 14:34:48;;;;;;;81.07;53.95;;;;;;;;;;5084207;28;20033;-63
2020/12/18 14:37:15;;;;;;;78.43;53.00;;;;;;;;;;5076255;28;20029;-62
2020/12/18 14:39:42;;;;;;;79.88;53.15;;;;;;;;;;5084852;28;20465;-63
2020/12/18 14:42:08;;;;;;;74.78;51.55;;;;;;;;;;5082214;28;20039;-62
2020/12/18 14:44:35;;;;;;;80.95;53.67;;;;;;;;;;5086147;28;20062;-63
2020/12/18 14:47:01;;;;;;;83.07;55.03;;;;;;;;;;5085886;28;20032;-62
2020/12/18 14:55:34;;;;;;;71.28;50.40;;;;;;;;;;5080279;28;20039;-62
2020/12/18 14:58:00;;;;;;;77.20;50.92;;;;;;;;;;5085446;28;20028;-63
2020/12/18 15:00:26;;;;;;;74.15;52.15;;;;;;;;;;5078181;28;20023;-63